sensor_id;sensor_type;location;lat;lon;timestamp;P1;durP1;ratioP1;P2;durP2;ratioP2
70455;SDS011;57916;51.996;5.180;2022-07-30T00:01:50;8.32;;;3.05;;
70455;SDS011;57916;51.996;5.180;2022-07-30T00:04:17;8.50;;;3.20;;
70455;SDS011;57916;51.996;5.180;2022-07-30T00:06:45;8.27;;;3.08;;
70455;SDS011;57916;51.996;5.180;2022-07-30T00:09:12;7.60;;;2.95;;
70455;SDS011;57916;51.996;5.180;2022-07-30T00:11:39;7.93;;;2.90;;
70455;SDS011;57916;51.996;5.180;2022-07-30T00:14:06;6.95;;;2.90;;
70455;SDS011;57916;51.996;5.180;2022-07-30T00:16:33;8.52;;;3.35;;
70455;SDS011;57916;51.996;5.180;2022-07-30T00:19:00;8.32;;;3.30;;
70455;SDS011;57916;51.996;5.180;2022-07-30T00:21:27;10.53;;;3.30;;
70455;SDS011;57916;51.996;5.180;2022-07-30T00:24:02;13.05;;;3.75;;
70455;SDS011;57916;51.996;5.180;2022-07-30T00:26:29;8.68;;;3.35;;
70455;SDS011;57916;51.996;5.180;2022-07-30T00:28:56;12.15;;;3.55;;
70455;SDS011;57916;51.996;5.180;2022-07-30T00:31:23;10.07;;;3.40;;
70455;SDS011;57916;51.996;5.180;2022-07-30T00:33:50;9.25;;;3.33;;
70455;SDS011;57916;51.996;5.180;2022-07-30T00:36:17;9.45;;;3.47;;
70455;SDS011;57916;51.996;5.180;2022-07-30T00:38:44;9.75;;;3.55;;
70455;SDS011;57916;51.996;5.180;2022-07-30T00:41:11;10.93;;;3.70;;
70455;SDS011;57916;51.996;5.180;2022-07-30T00:43:41;9.30;;;3.47;;
70455;SDS011;57916;51.996;5.180;2022-07-30T00:46:09;9.95;;;3.45;;
70455;SDS011;57916;51.996;5.180;2022-07-30T00:48:36;9.98;;;3.60;;
70455;SDS011;57916;51.996;5.180;2022-07-30T00:51:03;9.82;;;3.92;;
70455;SDS011;57916;51.996;5.180;2022-07-30T00:53:30;9.00;;;3.55;;
70455;SDS011;57916;51.996;5.180;2022-07-30T00:55:57;7.55;;;3.60;;
70455;SDS011;57916;51.996;5.180;2022-07-30T00:58:24;8.70;;;3.43;;
70455;SDS011;57916;51.996;5.180;2022-07-30T01:00:51;12.55;;;4.03;;
70455;SDS011;57916;51.996;5.180;2022-07-30T01:03:19;9.27;;;4.40;;
70455;SDS011;57916;51.996;5.180;2022-07-30T01:05:46;7.38;;;3.30;;
70455;SDS011;57916;51.996;5.180;2022-07-30T01:08:13;10.33;;;3.80;;
70455;SDS011;57916;51.996;5.180;2022-07-30T01:10:40;6.03;;;3.75;;
70455;SDS011;57916;51.996;5.180;2022-07-30T01:13:07;11.52;;;4.03;;
70455;SDS011;57916;51.996;5.180;2022-07-30T01:15:35;8.40;;;4.50;;
70455;SDS011;57916;51.996;5.180;2022-07-30T01:18:04;6.90;;;4.47;;
70455;SDS011;57916;51.996;5.180;2022-07-30T01:21:08;6.93;;;4.07;;
70455;SDS011;57916;51.996;5.180;2022-07-30T01:23:42;10.40;;;4.68;;
70455;SDS011;57916;51.996;5.180;2022-07-30T01:26:16;10.43;;;5.10;;
70455;SDS011;57916;51.996;5.180;2022-07-30T01:28:45;12.07;;;5.25;;
70455;SDS011;57916;51.996;5.180;2022-07-30T01:31:19;10.87;;;4.80;;
70455;SDS011;57916;51.996;5.180;2022-07-30T01:33:49;10.40;;;5.70;;
70455;SDS011;57916;51.996;5.180;2022-07-30T01:36:19;15.15;;;5.57;;
70455;SDS011;57916;51.996;5.180;2022-07-30T01:38:48;11.03;;;6.00;;
70455;SDS011;57916;51.996;5.180;2022-07-30T01:41:17;12.35;;;5.97;;
70455;SDS011;57916;51.996;5.180;2022-07-30T01:43:45;11.80;;;6.22;;
70455;SDS011;57916;51.996;5.180;2022-07-30T01:46:13;12.70;;;6.43;;
70455;SDS011;57916;51.996;5.180;2022-07-30T01:48:44;11.65;;;6.60;;
70455;SDS011;57916;51.996;5.180;2022-07-30T01:51:12;12.15;;;7.03;;
70455;SDS011;57916;51.996;5.180;2022-07-30T01:53:45;14.65;;;6.70;;
70455;SDS011;57916;51.996;5.180;2022-07-30T01:56:16;12.80;;;6.80;;
70455;SDS011;57916;51.996;5.180;2022-07-30T01:58:50;11.50;;;7.00;;
70455;SDS011;57916;51.996;5.180;2022-07-30T02:01:22;13.20;;;7.30;;
70455;SDS011;57916;51.996;5.180;2022-07-30T02:03:54;12.13;;;6.82;;
70455;SDS011;57916;51.996;5.180;2022-07-30T02:06:25;13.10;;;7.40;;
70455;SDS011;57916;51.996;5.180;2022-07-30T02:09:03;13.32;;;7.85;;
70455;SDS011;57916;51.996;5.180;2022-07-30T02:11:40;13.70;;;7.68;;
70455;SDS011;57916;51.996;5.180;2022-07-30T02:15:13;13.38;;;8.10;;
70455;SDS011;57916;51.996;5.180;2022-07-30T02:17:33;11.80;;;8.17;;
70455;SDS011;57916;51.996;5.180;2022-07-30T02:20:16;12.07;;;8.00;;
70455;SDS011;57916;51.996;5.180;2022-07-30T02:22:50;13.05;;;8.10;;
70455;SDS011;57916;51.996;5.180;2022-07-30T02:25:22;13.93;;;8.50;;
70455;SDS011;57916;51.996;5.180;2022-07-30T02:27:51;11.20;;;8.35;;
70455;SDS011;57916;51.996;5.180;2022-07-30T02:30:24;14.40;;;8.45;;
70455;SDS011;57916;51.996;5.180;2022-07-30T02:32:53;14.15;;;8.32;;
70455;SDS011;57916;51.996;5.180;2022-07-30T02:35:24;16.02;;;8.82;;
70455;SDS011;57916;51.996;5.180;2022-07-30T02:37:54;15.23;;;9.20;;
70455;SDS011;57916;51.996;5.180;2022-07-30T02:40:23;11.23;;;8.20;;
70455;SDS011;57916;51.996;5.180;2022-07-30T02:42:51;14.98;;;8.63;;
70455;SDS011;57916;51.996;5.180;2022-07-30T02:45:23;15.70;;;8.55;;
70455;SDS011;57916;51.996;5.180;2022-07-30T02:48:01;11.93;;;8.60;;
70455;SDS011;57916;51.996;5.180;2022-07-30T02:50:32;13.88;;;8.60;;
70455;SDS011;57916;51.996;5.180;2022-07-30T02:53:00;12.95;;;9.05;;
70455;SDS011;57916;51.996;5.180;2022-07-30T02:55:29;16.48;;;8.80;;
70455;SDS011;57916;51.996;5.180;2022-07-30T02:57:58;17.02;;;9.05;;
70455;SDS011;57916;51.996;5.180;2022-07-30T03:00:29;14.18;;;8.30;;
70455;SDS011;57916;51.996;5.180;2022-07-30T03:02:57;12.90;;;7.68;;
70455;SDS011;57916;51.996;5.180;2022-07-30T03:05:27;12.95;;;8.23;;
70455;SDS011;57916;51.996;5.180;2022-07-30T03:07:55;10.43;;;7.70;;
70455;SDS011;57916;51.996;5.180;2022-07-30T03:10:25;16.77;;;8.45;;
70455;SDS011;57916;51.996;5.180;2022-07-30T03:12:53;12.60;;;8.05;;
70455;SDS011;57916;51.996;5.180;2022-07-30T03:15:21;15.32;;;8.23;;
70455;SDS011;57916;51.996;5.180;2022-07-30T03:17:50;15.70;;;8.40;;
70455;SDS011;57916;51.996;5.180;2022-07-30T03:20:23;15.13;;;8.63;;
70455;SDS011;57916;51.996;5.180;2022-07-30T03:22:53;12.48;;;8.32;;
70455;SDS011;57916;51.996;5.180;2022-07-30T03:25:23;12.15;;;8.00;;
70455;SDS011;57916;51.996;5.180;2022-07-30T03:27:53;14.77;;;8.13;;
70455;SDS011;57916;51.996;5.180;2022-07-30T03:30:24;14.47;;;8.10;;
70455;SDS011;57916;51.996;5.180;2022-07-30T03:32:52;16.27;;;8.48;;
70455;SDS011;57916;51.996;5.180;2022-07-30T03:35:21;11.90;;;8.18;;
70455;SDS011;57916;51.996;5.180;2022-07-30T03:37:52;13.95;;;8.40;;
70455;SDS011;57916;51.996;5.180;2022-07-30T03:40:21;11.47;;;8.27;;
70455;SDS011;57916;51.996;5.180;2022-07-30T03:42:48;14.85;;;8.68;;
70455;SDS011;57916;51.996;5.180;2022-07-30T03:45:19;13.48;;;8.60;;
70455;SDS011;57916;51.996;5.180;2022-07-30T03:47:49;15.07;;;8.20;;
70455;SDS011;57916;51.996;5.180;2022-07-30T03:50:17;14.38;;;8.25;;
70455;SDS011;57916;51.996;5.180;2022-07-30T03:52:45;14.13;;;8.27;;
70455;SDS011;57916;51.996;5.180;2022-07-30T03:55:15;12.80;;;7.80;;
70455;SDS011;57916;51.996;5.180;2022-07-30T03:57:48;15.30;;;8.02;;
70455;SDS011;57916;51.996;5.180;2022-07-30T04:00:18;12.32;;;8.30;;
70455;SDS011;57916;51.996;5.180;2022-07-30T04:02:49;12.70;;;8.15;;
70455;SDS011;57916;51.996;5.180;2022-07-30T04:05:44;13.60;;;7.87;;
70455;SDS011;57916;51.996;5.180;2022-07-30T04:08:11;12.98;;;8.20;;
70455;SDS011;57916;51.996;5.180;2022-07-30T04:10:39;13.55;;;7.38;;
70455;SDS011;57916;51.996;5.180;2022-07-30T04:13:26;9.98;;;7.50;;
70455;SDS011;57916;51.996;5.180;2022-07-30T04:16:15;14.18;;;7.55;;
70455;SDS011;57916;51.996;5.180;2022-07-30T04:19:11;12.10;;;7.50;;
70455;SDS011;57916;51.996;5.180;2022-07-30T04:22:00;14.68;;;7.38;;
70455;SDS011;57916;51.996;5.180;2022-07-30T04:24:31;11.93;;;7.55;;
70455;SDS011;57916;51.996;5.180;2022-07-30T04:26:59;14.88;;;7.82;;
70455;SDS011;57916;51.996;5.180;2022-07-30T04:29:28;9.97;;;6.97;;
70455;SDS011;57916;51.996;5.180;2022-07-30T04:31:55;11.60;;;7.28;;
70455;SDS011;57916;51.996;5.180;2022-07-30T04:34:32;12.77;;;7.20;;
70455;SDS011;57916;51.996;5.180;2022-07-30T04:37:00;11.52;;;7.10;;
70455;SDS011;57916;51.996;5.180;2022-07-30T04:39:27;14.48;;;7.18;;
70455;SDS011;57916;51.996;5.180;2022-07-30T04:41:54;14.23;;;7.80;;
70455;SDS011;57916;51.996;5.180;2022-07-30T04:44:30;11.93;;;7.97;;
70455;SDS011;57916;51.996;5.180;2022-07-30T04:47:29;12.65;;;7.53;;
70455;SDS011;57916;51.996;5.180;2022-07-30T04:50:25;16.08;;;8.20;;
70455;SDS011;57916;51.996;5.180;2022-07-30T04:52:55;13.52;;;7.93;;
70455;SDS011;57916;51.996;5.180;2022-07-30T04:55:26;15.37;;;8.47;;
70455;SDS011;57916;51.996;5.180;2022-07-30T04:57:54;14.38;;;8.25;;
70455;SDS011;57916;51.996;5.180;2022-07-30T05:00:22;11.95;;;7.97;;
70455;SDS011;57916;51.996;5.180;2022-07-30T05:02:50;16.83;;;8.00;;
70455;SDS011;57916;51.996;5.180;2022-07-30T05:05:19;14.73;;;8.00;;
70455;SDS011;57916;51.996;5.180;2022-07-30T05:07:47;11.30;;;7.57;;
70455;SDS011;57916;51.996;5.180;2022-07-30T05:10:14;13.07;;;7.85;;
70455;SDS011;57916;51.996;5.180;2022-07-30T05:12:43;13.23;;;8.40;;
70455;SDS011;57916;51.996;5.180;2022-07-30T05:15:11;13.85;;;8.00;;
70455;SDS011;57916;51.996;5.180;2022-07-30T05:17:39;14.33;;;8.00;;
70455;SDS011;57916;51.996;5.180;2022-07-30T05:20:08;10.90;;;7.80;;
70455;SDS011;57916;51.996;5.180;2022-07-30T05:22:58;13.52;;;7.90;;
70455;SDS011;57916;51.996;5.180;2022-07-30T05:25:25;15.40;;;7.43;;
70455;SDS011;57916;51.996;5.180;2022-07-30T05:27:58;14.07;;;7.50;;
70455;SDS011;57916;51.996;5.180;2022-07-30T05:30:25;10.88;;;7.45;;
70455;SDS011;57916;51.996;5.180;2022-07-30T05:32:55;11.52;;;7.20;;
70455;SDS011;57916;51.996;5.180;2022-07-30T05:35:23;13.75;;;7.03;;
70455;SDS011;57916;51.996;5.180;2022-07-30T05:37:50;12.68;;;6.90;;
70455;SDS011;57916;51.996;5.180;2022-07-30T05:40:18;9.82;;;6.25;;
70455;SDS011;57916;51.996;5.180;2022-07-30T05:43:11;14.75;;;6.30;;
70455;SDS011;57916;51.996;5.180;2022-07-30T05:45:38;10.82;;;6.35;;
70455;SDS011;57916;51.996;5.180;2022-07-30T05:48:05;13.20;;;6.22;;
70455;SDS011;57916;51.996;5.180;2022-07-30T05:50:32;9.52;;;6.10;;
70455;SDS011;57916;51.996;5.180;2022-07-30T05:52:59;7.53;;;5.35;;
70455;SDS011;57916;51.996;5.180;2022-07-30T05:55:49;10.30;;;5.70;;
70455;SDS011;57916;51.996;5.180;2022-07-30T05:58:36;10.38;;;5.20;;
70455;SDS011;57916;51.996;5.180;2022-07-30T06:01:03;14.40;;;5.20;;
70455;SDS011;57916;51.996;5.180;2022-07-30T06:03:31;6.88;;;4.78;;
70455;SDS011;57916;51.996;5.180;2022-07-30T06:06:21;8.13;;;4.30;;
70455;SDS011;57916;51.996;5.180;2022-07-30T06:08:49;6.53;;;4.22;;
70455;SDS011;57916;51.996;5.180;2022-07-30T06:11:16;9.90;;;4.13;;
70455;SDS011;57916;51.996;5.180;2022-07-30T06:13:44;6.70;;;4.10;;
70455;SDS011;57916;51.996;5.180;2022-07-30T06:16:11;10.88;;;4.30;;
70455;SDS011;57916;51.996;5.180;2022-07-30T06:18:38;12.83;;;3.80;;
70455;SDS011;57916;51.996;5.180;2022-07-30T06:21:13;5.40;;;3.60;;
70455;SDS011;57916;51.996;5.180;2022-07-30T06:23:50;9.15;;;3.67;;
70455;SDS011;57916;51.996;5.180;2022-07-30T06:26:29;6.20;;;3.17;;
70455;SDS011;57916;51.996;5.180;2022-07-30T06:28:56;9.55;;;2.95;;
70455;SDS011;57916;51.996;5.180;2022-07-30T06:31:28;6.72;;;2.75;;
70455;SDS011;57916;51.996;5.180;2022-07-30T06:33:55;8.47;;;2.40;;
70455;SDS011;57916;51.996;5.180;2022-07-30T06:36:24;5.82;;;2.30;;
70455;SDS011;57916;51.996;5.180;2022-07-30T06:38:59;4.53;;;2.38;;
70455;SDS011;57916;51.996;5.180;2022-07-30T06:41:44;5.75;;;2.20;;
70455;SDS011;57916;51.996;5.180;2022-07-30T06:44:12;8.25;;;2.20;;
70455;SDS011;57916;51.996;5.180;2022-07-30T06:46:45;4.47;;;1.95;;
70455;SDS011;57916;51.996;5.180;2022-07-30T06:49:12;6.63;;;2.00;;
70455;SDS011;57916;51.996;5.180;2022-07-30T06:51:39;5.60;;;1.60;;
70455;SDS011;57916;51.996;5.180;2022-07-30T06:54:06;4.85;;;2.10;;
70455;SDS011;57916;51.996;5.180;2022-07-30T06:56:59;6.57;;;2.10;;
70455;SDS011;57916;51.996;5.180;2022-07-30T06:59:28;6.90;;;2.30;;
70455;SDS011;57916;51.996;5.180;2022-07-30T07:02:30;9.47;;;1.97;;
70455;SDS011;57916;51.996;5.180;2022-07-30T07:05:05;6.60;;;1.80;;
70455;SDS011;57916;51.996;5.180;2022-07-30T07:07:33;6.63;;;1.95;;
70455;SDS011;57916;51.996;5.180;2022-07-30T07:10:09;5.80;;;1.80;;
70455;SDS011;57916;51.996;5.180;2022-07-30T07:12:48;3.00;;;1.40;;
70455;SDS011;57916;51.996;5.180;2022-07-30T07:15:18;9.30;;;1.63;;
70455;SDS011;57916;51.996;5.180;2022-07-30T07:17:56;5.93;;;1.55;;
70455;SDS011;57916;51.996;5.180;2022-07-30T07:20:33;3.30;;;1.40;;
70455;SDS011;57916;51.996;5.180;2022-07-30T07:23:03;2.38;;;1.35;;
70455;SDS011;57916;51.996;5.180;2022-07-30T07:25:37;3.58;;;1.50;;
70455;SDS011;57916;51.996;5.180;2022-07-30T07:28:05;4.20;;;1.30;;
70455;SDS011;57916;51.996;5.180;2022-07-30T07:30:40;4.70;;;1.08;;
70455;SDS011;57916;51.996;5.180;2022-07-30T07:33:07;6.55;;;1.17;;
70455;SDS011;57916;51.996;5.180;2022-07-30T07:35:35;10.40;;;1.20;;
70455;SDS011;57916;51.996;5.180;2022-07-30T07:38:24;7.05;;;1.20;;
70455;SDS011;57916;51.996;5.180;2022-07-30T07:40:53;2.67;;;1.08;;
70455;SDS011;57916;51.996;5.180;2022-07-30T07:43:20;5.18;;;1.08;;
70455;SDS011;57916;51.996;5.180;2022-07-30T07:45:47;2.30;;;1.02;;
70455;SDS011;57916;51.996;5.180;2022-07-30T07:48:16;3.22;;;1.10;;
70455;SDS011;57916;51.996;5.180;2022-07-30T07:51:22;4.77;;;1.07;;
70455;SDS011;57916;51.996;5.180;2022-07-30T07:54:12;3.95;;;1.23;;
70455;SDS011;57916;51.996;5.180;2022-07-30T07:56:47;3.92;;;1.33;;
70455;SDS011;57916;51.996;5.180;2022-07-30T07:59:20;2.58;;;1.10;;
70455;SDS011;57916;51.996;5.180;2022-07-30T08:01:48;3.35;;;1.20;;
70455;SDS011;57916;51.996;5.180;2022-07-30T08:04:35;4.15;;;1.23;;
70455;SDS011;57916;51.996;5.180;2022-07-30T08:07:07;4.30;;;1.10;;
70455;SDS011;57916;51.996;5.180;2022-07-30T08:10:12;5.97;;;1.40;;
70455;SDS011;57916;51.996;5.180;2022-07-30T08:13:00;5.22;;;1.13;;
70455;SDS011;57916;51.996;5.180;2022-07-30T08:15:43;3.55;;;1.00;;
70455;SDS011;57916;51.996;5.180;2022-07-30T08:18:16;3.08;;;1.00;;
70455;SDS011;57916;51.996;5.180;2022-07-30T08:20:50;2.67;;;1.20;;
70455;SDS011;57916;51.996;5.180;2022-07-30T08:23:22;3.28;;;1.10;;
70455;SDS011;57916;51.996;5.180;2022-07-30T08:25:50;2.63;;;1.05;;
70455;SDS011;57916;51.996;5.180;2022-07-30T08:28:16;3.30;;;1.00;;
70455;SDS011;57916;51.996;5.180;2022-07-30T08:31:00;3.22;;;1.00;;
70455;SDS011;57916;51.996;5.180;2022-07-30T08:33:28;3.63;;;1.10;;
70455;SDS011;57916;51.996;5.180;2022-07-30T08:35:55;3.92;;;1.10;;
70455;SDS011;57916;51.996;5.180;2022-07-30T08:38:28;2.33;;;1.00;;
70455;SDS011;57916;51.996;5.180;2022-07-30T08:40:55;2.45;;;1.10;;
70455;SDS011;57916;51.996;5.180;2022-07-30T08:43:23;2.95;;;1.05;;
70455;SDS011;57916;51.996;5.180;2022-07-30T08:45:54;3.30;;;1.20;;
70455;SDS011;57916;51.996;5.180;2022-07-30T08:48:43;3.10;;;1.13;;
70455;SDS011;57916;51.996;5.180;2022-07-30T08:51:14;4.63;;;1.20;;
70455;SDS011;57916;51.996;5.180;2022-07-30T08:54:05;3.15;;;1.00;;
70455;SDS011;57916;51.996;5.180;2022-07-30T08:56:33;3.03;;;1.10;;
70455;SDS011;57916;51.996;5.180;2022-07-30T08:59:00;3.85;;;0.95;;
70455;SDS011;57916;51.996;5.180;2022-07-30T09:01:28;2.97;;;1.13;;
70455;SDS011;57916;51.996;5.180;2022-07-30T09:03:55;4.30;;;1.00;;
70455;SDS011;57916;51.996;5.180;2022-07-30T09:06:25;3.88;;;1.00;;
70455;SDS011;57916;51.996;5.180;2022-07-30T09:08:52;1.73;;;0.82;;
70455;SDS011;57916;51.996;5.180;2022-07-30T09:11:20;2.97;;;0.75;;
70455;SDS011;57916;51.996;5.180;2022-07-30T09:13:47;3.73;;;0.90;;
70455;SDS011;57916;51.996;5.180;2022-07-30T09:18:47;5.53;;;0.90;;
70455;SDS011;57916;51.996;5.180;2022-07-30T09:21:25;4.35;;;0.80;;
70455;SDS011;57916;51.996;5.180;2022-07-30T09:24:12;3.33;;;0.73;;
70455;SDS011;57916;51.996;5.180;2022-07-30T09:27:00;1.87;;;0.87;;
70455;SDS011;57916;51.996;5.180;2022-07-30T09:29:58;3.03;;;1.00;;
70455;SDS011;57916;51.996;5.180;2022-07-30T09:33:03;2.42;;;1.05;;
70455;SDS011;57916;51.996;5.180;2022-07-30T09:36:10;2.27;;;0.90;;
70455;SDS011;57916;51.996;5.180;2022-07-30T09:39:04;2.20;;;0.80;;
70455;SDS011;57916;51.996;5.180;2022-07-30T09:42:22;2.37;;;0.90;;
70455;SDS011;57916;51.996;5.180;2022-07-30T09:45:09;1.42;;;0.90;;
70455;SDS011;57916;51.996;5.180;2022-07-30T09:47:41;1.37;;;0.80;;
70455;SDS011;57916;51.996;5.180;2022-07-30T09:50:14;2.23;;;0.80;;
70455;SDS011;57916;51.996;5.180;2022-07-30T09:53:04;0.97;;;0.70;;
70455;SDS011;57916;51.996;5.180;2022-07-30T09:55:36;4.65;;;0.90;;
70455;SDS011;57916;51.996;5.180;2022-07-30T09:58:08;2.15;;;0.90;;
70455;SDS011;57916;51.996;5.180;2022-07-30T10:00:42;1.95;;;0.90;;
70455;SDS011;57916;51.996;5.180;2022-07-30T10:03:28;2.25;;;0.90;;
70455;SDS011;57916;51.996;5.180;2022-07-30T10:06:27;2.38;;;0.75;;
70455;SDS011;57916;51.996;5.180;2022-07-30T10:09:00;1.65;;;0.70;;
70455;SDS011;57916;51.996;5.180;2022-07-30T10:11:39;0.90;;;0.70;;
70455;SDS011;57916;51.996;5.180;2022-07-30T10:14:07;4.93;;;0.90;;
70455;SDS011;57916;51.996;5.180;2022-07-30T10:16:34;2.33;;;0.80;;
70455;SDS011;57916;51.996;5.180;2022-07-30T10:19:01;1.85;;;0.80;;
70455;SDS011;57916;51.996;5.180;2022-07-30T10:21:52;3.85;;;0.80;;
70455;SDS011;57916;51.996;5.180;2022-07-30T10:24:43;1.00;;;0.60;;
70455;SDS011;57916;51.996;5.180;2022-07-30T10:27:31;2.40;;;0.90;;
70455;SDS011;57916;51.996;5.180;2022-07-30T10:30:07;2.17;;;0.80;;
70455;SDS011;57916;51.996;5.180;2022-07-30T10:32:39;3.83;;;0.75;;
70455;SDS011;57916;51.996;5.180;2022-07-30T10:35:08;2.35;;;0.88;;
70455;SDS011;57916;51.996;5.180;2022-07-30T10:37:36;3.35;;;0.88;;
70455;SDS011;57916;51.996;5.180;2022-07-30T10:40:17;2.63;;;0.70;;
70455;SDS011;57916;51.996;5.180;2022-07-30T10:48:48;2.30;;;0.80;;
70455;SDS011;57916;51.996;5.180;2022-07-30T10:51:16;2.95;;;0.70;;
70455;SDS011;57916;51.996;5.180;2022-07-30T10:53:50;2.00;;;0.73;;
70455;SDS011;57916;51.996;5.180;2022-07-30T10:56:19;1.60;;;0.80;;
70455;SDS011;57916;51.996;5.180;2022-07-30T10:58:58;4.78;;;0.88;;
70455;SDS011;57916;51.996;5.180;2022-07-30T11:06:45;4.85;;;0.80;;
70455;SDS011;57916;51.996;5.180;2022-07-30T11:12:07;1.52;;;0.80;;
70455;SDS011;57916;51.996;5.180;2022-07-30T11:17:13;2.55;;;0.80;;
70455;SDS011;57916;51.996;5.180;2022-07-30T11:22:38;3.60;;;0.95;;
70455;SDS011;57916;51.996;5.180;2022-07-30T11:25:07;2.20;;;0.90;;
70455;SDS011;57916;51.996;5.180;2022-07-30T11:27:42;1.58;;;0.73;;
70455;SDS011;57916;51.996;5.180;2022-07-30T11:32:43;3.08;;;0.80;;
70455;SDS011;57916;51.996;5.180;2022-07-30T11:35:15;3.10;;;0.90;;
70455;SDS011;57916;51.996;5.180;2022-07-30T11:48:42;4.05;;;0.90;;
70455;SDS011;57916;51.996;5.180;2022-07-30T11:51:21;2.58;;;1.10;;
70455;SDS011;57916;51.996;5.180;2022-07-30T11:53:59;6.90;;;1.10;;
70455;SDS011;57916;51.996;5.180;2022-07-30T11:56:33;1.85;;;0.85;;
70455;SDS011;57916;51.996;5.180;2022-07-30T11:59:03;2.45;;;0.93;;
70455;SDS011;57916;51.996;5.180;2022-07-30T12:01:32;1.75;;;0.93;;
70455;SDS011;57916;51.996;5.180;2022-07-30T12:04:04;3.08;;;1.10;;
70455;SDS011;57916;51.996;5.180;2022-07-30T12:06:32;4.28;;;1.00;;
70455;SDS011;57916;51.996;5.180;2022-07-30T12:09:01;6.07;;;1.02;;
70455;SDS011;57916;51.996;5.180;2022-07-30T12:11:32;2.22;;;0.82;;
70455;SDS011;57916;51.996;5.180;2022-07-30T12:14:00;2.85;;;0.90;;
70455;SDS011;57916;51.996;5.180;2022-07-30T12:16:29;1.02;;;0.88;;
70455;SDS011;57916;51.996;5.180;2022-07-30T12:19:00;1.80;;;0.90;;
70455;SDS011;57916;51.996;5.180;2022-07-30T12:21:31;3.75;;;0.90;;
70455;SDS011;57916;51.996;5.180;2022-07-30T12:23:59;3.22;;;0.90;;
70455;SDS011;57916;51.996;5.180;2022-07-30T12:26:29;3.90;;;0.80;;
70455;SDS011;57916;51.996;5.180;2022-07-30T12:29:03;2.20;;;0.98;;
70455;SDS011;57916;51.996;5.180;2022-07-30T12:31:39;3.38;;;0.93;;
70455;SDS011;57916;51.996;5.180;2022-07-30T12:34:23;2.05;;;0.98;;
70455;SDS011;57916;51.996;5.180;2022-07-30T12:36:51;5.28;;;1.10;;
70455;SDS011;57916;51.996;5.180;2022-07-30T12:39:19;6.32;;;1.10;;
70455;SDS011;57916;51.996;5.180;2022-07-30T12:41:48;1.75;;;0.80;;
70455;SDS011;57916;51.996;5.180;2022-07-30T12:44:39;3.63;;;0.90;;
70455;SDS011;57916;51.996;5.180;2022-07-30T12:47:21;4.90;;;0.98;;
70455;SDS011;57916;51.996;5.180;2022-07-30T12:49:52;3.45;;;0.93;;
70455;SDS011;57916;51.996;5.180;2022-07-30T12:57:28;2.10;;;0.85;;
70455;SDS011;57916;51.996;5.180;2022-07-30T13:00:17;2.05;;;1.00;;
70455;SDS011;57916;51.996;5.180;2022-07-30T13:02:45;2.15;;;1.08;;
70455;SDS011;57916;51.996;5.180;2022-07-30T13:05:12;6.97;;;1.00;;
70455;SDS011;57916;51.996;5.180;2022-07-30T13:07:58;3.38;;;0.90;;
70455;SDS011;57916;51.996;5.180;2022-07-30T13:10:25;2.97;;;0.98;;
70455;SDS011;57916;51.996;5.180;2022-07-30T13:12:56;2.95;;;1.10;;
70455;SDS011;57916;51.996;5.180;2022-07-30T13:15:24;2.95;;;1.08;;
70455;SDS011;57916;51.996;5.180;2022-07-30T13:17:53;4.40;;;1.00;;
70455;SDS011;57916;51.996;5.180;2022-07-30T13:20:20;2.25;;;1.20;;
70455;SDS011;57916;51.996;5.180;2022-07-30T13:22:47;1.97;;;1.00;;
70455;SDS011;57916;51.996;5.180;2022-07-30T13:25:14;1.83;;;0.90;;
70455;SDS011;57916;51.996;5.180;2022-07-30T13:27:41;3.30;;;1.05;;
70455;SDS011;57916;51.996;5.180;2022-07-30T13:30:08;4.68;;;0.90;;
70455;SDS011;57916;51.996;5.180;2022-07-30T13:32:35;2.70;;;1.13;;
70455;SDS011;57916;51.996;5.180;2022-07-30T13:35:02;4.03;;;1.02;;
70455;SDS011;57916;51.996;5.180;2022-07-30T13:37:30;4.50;;;0.90;;
70455;SDS011;57916;51.996;5.180;2022-07-30T13:40:04;3.33;;;1.13;;
70455;SDS011;57916;51.996;5.180;2022-07-30T13:45:17;5.05;;;1.10;;
70455;SDS011;57916;51.996;5.180;2022-07-30T13:47:44;4.57;;;1.00;;
70455;SDS011;57916;51.996;5.180;2022-07-30T13:50:11;3.17;;;1.10;;
70455;SDS011;57916;51.996;5.180;2022-07-30T13:52:38;2.75;;;1.20;;
70455;SDS011;57916;51.996;5.180;2022-07-30T13:55:05;3.72;;;1.10;;
70455;SDS011;57916;51.996;5.180;2022-07-30T13:57:32;4.67;;;1.27;;
70455;SDS011;57916;51.996;5.180;2022-07-30T13:59:59;4.07;;;1.10;;
70455;SDS011;57916;51.996;5.180;2022-07-30T14:02:29;2.45;;;1.00;;
70455;SDS011;57916;51.996;5.180;2022-07-30T14:04:56;5.00;;;1.15;;
70455;SDS011;57916;51.996;5.180;2022-07-30T14:07:23;5.43;;;1.15;;
70455;SDS011;57916;51.996;5.180;2022-07-30T14:09:51;6.27;;;1.20;;
70455;SDS011;57916;51.996;5.180;2022-07-30T14:12:20;1.77;;;1.20;;
70455;SDS011;57916;51.996;5.180;2022-07-30T14:14:46;4.75;;;1.20;;
70455;SDS011;57916;51.996;5.180;2022-07-30T14:17:13;6.07;;;1.17;;
70455;SDS011;57916;51.996;5.180;2022-07-30T14:19:40;6.93;;;1.37;;
70455;SDS011;57916;51.996;5.180;2022-07-30T14:22:07;2.45;;;1.20;;
70455;SDS011;57916;51.996;5.180;2022-07-30T14:24:34;5.47;;;1.10;;
70455;SDS011;57916;51.996;5.180;2022-07-30T14:27:01;5.72;;;1.40;;
70455;SDS011;57916;51.996;5.180;2022-07-30T14:29:28;2.60;;;0.95;;
70455;SDS011;57916;51.996;5.180;2022-07-30T14:31:55;3.13;;;1.05;;
70455;SDS011;57916;51.996;5.180;2022-07-30T14:34:22;5.33;;;1.33;;
70455;SDS011;57916;51.996;5.180;2022-07-30T14:36:49;2.90;;;1.10;;
70455;SDS011;57916;51.996;5.180;2022-07-30T14:39:16;3.80;;;1.00;;
70455;SDS011;57916;51.996;5.180;2022-07-30T14:41:43;6.32;;;1.17;;
70455;SDS011;57916;51.996;5.180;2022-07-30T14:44:10;3.53;;;1.20;;
70455;SDS011;57916;51.996;5.180;2022-07-30T14:46:41;3.67;;;1.13;;
70455;SDS011;57916;51.996;5.180;2022-07-30T14:49:17;3.90;;;1.20;;
70455;SDS011;57916;51.996;5.180;2022-07-30T14:51:45;3.92;;;1.20;;
70455;SDS011;57916;51.996;5.180;2022-07-30T14:54:12;7.10;;;1.17;;
70455;SDS011;57916;51.996;5.180;2022-07-30T14:56:39;4.57;;;1.20;;
70455;SDS011;57916;51.996;5.180;2022-07-30T14:59:07;2.95;;;1.00;;
70455;SDS011;57916;51.996;5.180;2022-07-30T15:01:34;3.63;;;1.07;;
70455;SDS011;57916;51.996;5.180;2022-07-30T15:04:01;3.92;;;1.15;;
70455;SDS011;57916;51.996;5.180;2022-07-30T15:06:28;6.07;;;1.20;;
70455;SDS011;57916;51.996;5.180;2022-07-30T15:08:55;2.53;;;1.08;;
70455;SDS011;57916;51.996;5.180;2022-07-30T15:11:22;6.82;;;1.50;;
70455;SDS011;57916;51.996;5.180;2022-07-30T15:13:50;3.35;;;1.08;;
70455;SDS011;57916;51.996;5.180;2022-07-30T15:16:18;1.58;;;1.00;;
70455;SDS011;57916;51.996;5.180;2022-07-30T15:18:45;4.90;;;1.40;;
70455;SDS011;57916;51.996;5.180;2022-07-30T15:21:12;2.70;;;1.10;;
70455;SDS011;57916;51.996;5.180;2022-07-30T15:23:39;5.35;;;1.25;;
70455;SDS011;57916;51.996;5.180;2022-07-30T15:26:06;8.60;;;1.33;;
70455;SDS011;57916;51.996;5.180;2022-07-30T15:28:33;2.43;;;1.00;;
70455;SDS011;57916;51.996;5.180;2022-07-30T15:31:00;11.07;;;1.42;;
70455;SDS011;57916;51.996;5.180;2022-07-30T15:33:27;3.03;;;1.17;;
70455;SDS011;57916;51.996;5.180;2022-07-30T15:35:54;2.80;;;1.10;;
70455;SDS011;57916;51.996;5.180;2022-07-30T15:38:21;5.78;;;1.20;;
70455;SDS011;57916;51.996;5.180;2022-07-30T15:40:48;4.35;;;1.15;;
70455;SDS011;57916;51.996;5.180;2022-07-30T15:43:15;3.00;;;1.20;;
70455;SDS011;57916;51.996;5.180;2022-07-30T15:45:42;3.28;;;1.27;;
70455;SDS011;57916;51.996;5.180;2022-07-30T15:48:21;3.80;;;1.27;;
70455;SDS011;57916;51.996;5.180;2022-07-30T15:50:56;1.65;;;1.20;;
70455;SDS011;57916;51.996;5.180;2022-07-30T15:53:27;4.45;;;1.20;;
70455;SDS011;57916;51.996;5.180;2022-07-30T15:55:55;3.50;;;1.37;;
70455;SDS011;57916;51.996;5.180;2022-07-30T15:58:23;3.80;;;1.30;;